createdAt,value
2023-01-22T00:01:36.216Z,6.66
2023-01-22T00:04:05.278Z,6.48
2023-01-22T00:06:34.100Z,6.47
2023-01-22T00:09:04.049Z,6.43
2023-01-22T00:11:32.699Z,6.36
2023-01-22T00:14:01.515Z,6.37
2023-01-22T00:16:30.272Z,6.33
2023-01-22T00:18:59.220Z,6.38
2023-01-22T00:21:27.987Z,6.59
2023-01-22T00:23:56.687Z,6.76
2023-01-22T00:26:25.325Z,6.79
2023-01-22T00:28:54.095Z,6.94
2023-01-22T00:31:23.940Z,6.95
2023-01-22T00:33:52.706Z,6.95
2023-01-22T00:36:23.300Z,7.07
2023-01-22T00:38:52.827Z,7.13
2023-01-22T00:41:22.215Z,7.16
2023-01-22T00:43:52.871Z,7.17
2023-01-22T00:46:21.991Z,7.04
2023-01-22T00:48:51.348Z,6.83
2023-01-22T00:51:20.394Z,6.77
2023-01-22T00:53:49.306Z,6.55
2023-01-22T00:56:18.067Z,6.45
2023-01-22T00:58:46.851Z,6.19
2023-01-22T01:01:16.863Z,6.00
2023-01-22T01:03:46.637Z,5.78
2023-01-22T01:06:20.947Z,5.69
2023-01-22T01:08:50.831Z,5.72
2023-01-22T01:11:26.202Z,5.94
2023-01-22T01:13:55.619Z,6.06
2023-01-22T01:16:27.020Z,6.29
2023-01-22T01:19:04.428Z,6.42
2023-01-22T01:21:34.042Z,6.55
2023-01-22T01:24:03.451Z,6.53
2023-01-22T01:26:33.602Z,6.45
2023-01-22T01:29:04.356Z,6.55
2023-01-22T01:31:33.392Z,6.52
2023-01-22T01:34:02.103Z,6.64
2023-01-22T01:36:47.800Z,6.68
2023-01-22T01:39:04.444Z,6.52
2023-01-22T01:41:33.238Z,6.26
2023-01-22T01:44:17.292Z,6.16
2023-01-22T01:46:58.305Z,6.05
2023-01-22T01:49:32.694Z,6.07
2023-01-22T01:52:07.583Z,6.06
2023-01-22T01:54:40.323Z,6.09
2023-01-22T01:57:12.503Z,6.21
2023-01-22T01:59:42.936Z,6.11
2023-01-22T02:02:11.899Z,6.22
2023-01-22T02:04:40.692Z,6.24
2023-01-22T02:07:10.867Z,6.16
2023-01-22T02:09:39.600Z,6.20
2023-01-22T02:12:09.990Z,6.25
2023-01-22T02:14:41.753Z,6.23
2023-01-22T02:17:13.310Z,6.16
2023-01-22T02:19:45.438Z,6.07
2023-01-22T02:22:27.063Z,5.95
2023-01-22T02:24:53.843Z,5.90
2023-01-22T02:27:23.106Z,5.94
2023-01-22T02:29:52.710Z,5.83
2023-01-22T02:32:22.430Z,5.78
2023-01-22T02:34:51.955Z,5.75
2023-01-22T02:37:23.005Z,5.81
2023-01-22T02:39:52.076Z,6.07
2023-01-22T02:42:20.819Z,6.10
2023-01-22T02:44:54.306Z,6.09
2023-01-22T02:47:34.628Z,6.11
2023-01-22T02:50:04.066Z,6.20
2023-01-22T02:52:36.127Z,6.15
2023-01-22T02:55:05.187Z,6.08
2023-01-22T02:57:33.980Z,5.87
2023-01-22T03:00:03.177Z,5.74
2023-01-22T03:02:31.855Z,5.91
2023-01-22T03:05:02.275Z,5.98
2023-01-22T03:07:34.109Z,6.06
2023-01-22T03:10:02.901Z,6.03
2023-01-22T03:12:50.652Z,5.92
2023-01-22T03:15:38.542Z,6.01
2023-01-22T03:18:27.094Z,6.08
2023-01-22T03:21:15.601Z,6.38
2023-01-22T03:23:55.975Z,6.40
2023-01-22T03:26:26.563Z,6.34
2023-01-22T03:28:55.371Z,6.28
2023-01-22T03:31:24.260Z,6.10
2023-01-22T03:33:53.455Z,6.00
2023-01-22T03:36:22.045Z,5.97
2023-01-22T03:38:52.369Z,6.06
2023-01-22T03:41:21.159Z,5.93
2023-01-22T03:43:49.840Z,5.91
2023-01-22T03:46:20.663Z,5.77
2023-01-22T03:48:54.099Z,5.60
2023-01-22T03:51:23.257Z,5.58
2023-01-22T03:53:52.231Z,5.64
2023-01-22T03:56:25.685Z,5.65
2023-01-22T03:58:56.578Z,5.55
2023-01-22T04:01:28.034Z,5.34
2023-01-22T04:03:56.709Z,5.20
2023-01-22T04:06:25.943Z,5.16
2023-01-22T04:08:59.179Z,5.10
2023-01-22T04:11:41.239Z,5.00
2023-01-22T04:14:11.677Z,5.01
2023-01-22T04:16:55.159Z,5.00
2023-01-22T04:19:44.369Z,4.97
2023-01-22T04:22:39.179Z,5.07
2023-01-22T04:25:07.714Z,5.13
2023-01-22T04:27:49.324Z,5.10
2023-01-22T04:33:47.266Z,5.07
2023-01-22T04:36:15.232Z,5.04
2023-01-22T04:38:44.146Z,5.21
2023-01-22T04:42:03.949Z,5.13
2023-01-22T05:02:17.101Z,4.79
2023-01-22T05:04:59.083Z,4.71
2023-01-22T05:14:18.317Z,4.91
2023-01-22T05:16:47.106Z,5.06
2023-01-22T05:22:16.297Z,5.07
2023-01-22T05:28:14.808Z,4.99
2023-01-22T05:33:33.915Z,4.94
2023-01-22T05:36:03.922Z,5.14
2023-01-22T05:38:32.721Z,5.22
2023-01-22T05:41:01.392Z,5.15
2023-01-22T05:43:30.600Z,5.10
2023-01-22T05:46:03.529Z,5.06
2023-01-22T05:48:35.447Z,5.18
2023-01-22T05:51:07.736Z,5.32
2023-01-22T05:53:37.506Z,5.38
2023-01-22T05:56:07.439Z,5.44
2023-01-22T05:58:36.174Z,5.43
2023-01-22T06:01:04.999Z,5.49
2023-01-22T06:03:34.054Z,5.49
2023-01-22T06:06:05.170Z,5.29
2023-01-22T06:08:34.943Z,5.22
2023-01-22T06:11:05.727Z,5.32
2023-01-22T06:13:35.172Z,5.17
2023-01-22T06:16:04.218Z,5.12
2023-01-22T06:18:33.166Z,5.16
2023-01-22T06:21:04.586Z,5.13
2023-01-22T06:23:33.668Z,5.13
2023-01-22T06:26:03.476Z,5.01
2023-01-22T06:28:32.495Z,5.00
2023-01-22T06:31:06.455Z,4.88
2023-01-22T06:33:48.938Z,5.00
2023-01-22T06:36:16.637Z,4.95
2023-01-22T06:38:45.520Z,4.90
2023-01-22T06:41:14.510Z,4.83
2023-01-22T06:43:43.254Z,4.82
2023-01-22T06:46:12.008Z,4.88
2023-01-22T06:48:42.386Z,4.86
2023-01-22T06:51:11.947Z,4.95
2023-01-22T06:53:41.086Z,4.79
2023-01-22T06:56:10.076Z,4.69
2023-01-22T06:58:38.772Z,4.66
2023-01-22T07:01:08.476Z,4.73
2023-01-22T07:03:37.128Z,4.78
2023-01-22T07:06:06.262Z,5.01
2023-01-22T07:08:35.525Z,5.07
2023-01-22T07:11:07.642Z,5.17
2023-01-22T07:13:35.213Z,5.37
2023-01-22T07:16:18.994Z,5.55
2023-01-22T07:18:47.768Z,5.42
2023-01-22T07:21:16.363Z,5.32
2023-01-22T07:23:45.241Z,5.35
2023-01-22T07:26:19.326Z,5.36
2023-01-22T07:28:49.923Z,5.33
2023-01-22T07:31:19.048Z,5.30
2023-01-22T07:33:47.790Z,5.40
2023-01-22T07:36:16.433Z,5.51
2023-01-22T07:38:45.162Z,5.66
2023-01-22T07:41:25.206Z,5.85
2023-01-22T07:43:44.710Z,5.98
2023-01-22T07:46:13.385Z,6.24
2023-01-22T07:48:42.712Z,6.28
2023-01-22T07:51:13.111Z,6.35
2023-01-22T07:53:43.049Z,6.58
2023-01-22T07:56:11.794Z,7.02
2023-01-22T07:58:41.830Z,7.29
2023-01-22T08:01:11.645Z,7.41
2023-01-22T08:03:40.854Z,7.53
2023-01-22T08:06:15.147Z,7.77
2023-01-22T08:08:44.334Z,7.78
2023-01-22T08:11:13.253Z,7.90
2023-01-22T08:13:41.810Z,7.88
2023-01-22T08:16:10.613Z,7.98
2023-01-22T08:18:39.264Z,7.93
2023-01-22T08:21:08.010Z,8.10
2023-01-22T08:23:36.711Z,8.12
2023-01-22T08:26:05.609Z,8.13
2023-01-22T08:28:34.249Z,8.21
2023-01-22T08:31:04.535Z,8.04
2023-01-22T08:33:34.562Z,8.04
2023-01-22T08:36:03.231Z,8.13
2023-01-22T08:38:31.897Z,8.23
2023-01-22T08:41:00.728Z,8.26
2023-01-22T08:43:30.154Z,8.62
2023-01-22T08:46:04.298Z,8.86
2023-01-22T08:48:34.401Z,8.94
2023-01-22T08:51:06.180Z,8.87
2023-01-22T08:53:34.947Z,9.01
2023-01-22T08:59:17.346Z,9.16
2023-01-22T09:01:52.154Z,9.03
2023-01-22T09:04:20.809Z,9.15
2023-01-22T09:06:49.435Z,9.15
2023-01-22T09:09:18.224Z,9.09
2023-01-22T09:11:47.040Z,9.16
2023-01-22T09:14:16.174Z,9.29
2023-01-22T09:16:45.210Z,9.54
2023-01-22T09:19:13.966Z,9.67
2023-01-22T09:21:42.546Z,9.73
2023-01-22T09:24:11.193Z,9.93
2023-01-22T09:26:40.674Z,9.93
2023-01-22T09:35:21.577Z,10.15
2023-01-22T09:37:52.449Z,10.13
2023-01-22T09:46:42.499Z,10.11
2023-01-22T09:49:20.836Z,9.91
2023-01-22T09:58:25.858Z,9.99
2023-01-22T10:34:31.843Z,9.90
2023-01-22T10:37:18.440Z,9.96
2023-01-22T10:39:50.907Z,10.05
2023-01-22T10:42:23.271Z,10.11
2023-01-22T10:45:13.437Z,10.39
2023-01-22T10:47:43.797Z,10.48
2023-01-22T10:50:15.224Z,10.70
2023-01-22T10:52:46.686Z,10.67
2023-01-22T10:55:27.017Z,10.92
2023-01-22T10:58:03.053Z,11.17
2023-01-22T11:00:50.465Z,11.47
2023-01-22T11:03:17.149Z,11.89
2023-01-22T11:05:47.823Z,12.04
2023-01-22T11:08:19.701Z,12.28
2023-01-22T11:10:54.196Z,12.64
2023-01-22T11:13:31.809Z,12.68
2023-01-22T11:16:20.845Z,12.93
2023-01-22T11:18:56.974Z,13.30
2023-01-22T11:21:40.435Z,13.75
2023-01-22T11:24:24.039Z,13.98
2023-01-22T11:27:24.184Z,13.84
2023-01-22T11:30:01.572Z,13.69
2023-01-22T11:32:51.429Z,13.51
2023-01-22T11:35:29.585Z,13.49
2023-01-22T11:38:01.294Z,12.96
2023-01-22T11:40:35.650Z,12.92
2023-01-22T11:43:26.739Z,12.46
2023-01-22T11:46:07.275Z,12.38
2023-01-22T11:48:59.822Z,12.13
2023-01-22T11:51:41.982Z,11.89
2023-01-22T11:54:30.605Z,11.72
2023-01-22T11:57:19.523Z,11.68
2023-01-22T12:00:06.140Z,11.60
2023-01-22T12:03:07.178Z,11.60
2023-01-22T12:05:51.180Z,11.56
2023-01-22T12:08:42.193Z,11.84
2023-01-22T12:11:13.849Z,11.97
2023-01-22T12:13:54.760Z,11.75
2023-01-22T12:16:32.581Z,11.93
2023-01-22T12:19:13.129Z,12.24
2023-01-22T12:21:46.424Z,12.15
2023-01-22T12:24:24.021Z,12.16
2023-01-22T12:27:04.957Z,12.31
2023-01-22T12:29:57.701Z,12.30
2023-01-22T12:32:30.213Z,12.41
2023-01-22T12:35:07.614Z,12.24
2023-01-22T12:37:58.847Z,12.14
2023-01-22T12:40:33.393Z,11.92
2023-01-22T12:43:07.191Z,11.84
2023-01-22T12:46:11.477Z,11.82
2023-01-22T12:48:46.456Z,11.71
2023-01-22T12:51:27.122Z,11.71
2023-01-22T12:53:57.527Z,11.57
2023-01-22T12:57:26.988Z,11.56
2023-01-22T13:02:58.305Z,11.46
2023-01-22T13:05:32.800Z,11.29
2023-01-22T13:08:22.620Z,11.23
2023-01-22T13:11:00.309Z,11.28
2023-01-22T13:13:35.281Z,11.15
2023-01-22T13:16:10.174Z,11.08
2023-01-22T13:18:44.275Z,11.08
2023-01-22T13:21:19.048Z,10.98
2023-01-22T13:23:51.359Z,10.98
2023-01-22T13:26:22.938Z,10.92
2023-01-22T13:29:00.181Z,10.82
2023-01-22T13:31:29.210Z,10.85
2023-01-22T13:34:06.610Z,10.90
2023-01-22T13:36:42.734Z,10.95
2023-01-22T13:39:23.018Z,10.89
2023-01-22T13:42:12.997Z,10.79
2023-01-22T13:48:28.029Z,10.58
2023-01-22T13:51:05.858Z,10.50
2023-01-22T13:53:50.499Z,10.34
2023-01-22T13:56:28.817Z,10.37
2023-01-22T13:59:09.625Z,10.39
2023-01-22T16:49:53.764Z,9.00
2023-01-22T16:52:23.239Z,9.02
2023-01-22T16:54:52.711Z,9.12
2023-01-22T16:57:21.314Z,9.02
2023-01-22T17:00:01.180Z,9.07
2023-01-22T17:02:24.363Z,9.07
2023-01-22T17:04:54.059Z,9.15
2023-01-22T17:07:33.639Z,9.12
2023-01-22T17:09:54.899Z,9.11
2023-01-22T17:12:23.545Z,9.05
2023-01-22T17:14:52.740Z,9.02
2023-01-22T17:17:21.470Z,9.13
2023-01-22T17:19:50.082Z,9.07
2023-01-22T17:22:18.749Z,9.07
2023-01-22T17:24:52.726Z,9.13
2023-01-22T17:27:21.696Z,9.14
2023-01-22T17:29:51.455Z,9.15
2023-01-22T17:32:20.631Z,9.21
2023-01-22T17:34:49.416Z,9.18
2023-01-22T17:37:18.224Z,9.20
2023-01-22T17:39:48.472Z,9.21
2023-01-22T17:42:18.552Z,9.19
2023-01-22T17:44:47.665Z,9.18
2023-01-22T17:47:16.527Z,9.16
2023-01-22T17:49:46.849Z,9.17
2023-01-22T17:52:20.574Z,9.18
2023-01-22T17:54:49.404Z,9.13
2023-01-22T17:57:18.019Z,9.03
2023-01-22T17:59:46.780Z,9.08
2023-01-22T18:06:00.425Z,8.99
2023-01-22T18:08:35.166Z,9.06
2023-01-22T18:11:09.785Z,8.95
2023-01-22T18:13:38.840Z,8.99
2023-01-22T18:16:10.081Z,8.97
2023-01-22T18:18:39.514Z,8.96
2023-01-22T18:21:10.483Z,8.94
2023-01-22T18:23:39.128Z,8.98
2023-01-22T18:26:09.250Z,9.02
2023-01-22T18:28:40.386Z,9.03
2023-01-22T18:31:11.784Z,9.01
2023-01-22T18:33:44.347Z,8.91
2023-01-22T18:36:24.601Z,8.93
2023-01-22T18:38:54.069Z,8.90
2023-01-22T18:41:25.370Z,8.89
2023-01-22T18:43:58.772Z,8.91
2023-01-22T18:46:34.396Z,8.89
2023-01-22T18:49:05.429Z,8.98
2023-01-22T18:54:31.841Z,8.93
2023-01-22T18:57:01.027Z,8.94
2023-01-22T18:59:29.793Z,8.88
2023-01-22T19:01:58.769Z,8.75
2023-01-22T19:04:29.295Z,8.81
2023-01-22T19:07:00.636Z,8.80
2023-01-22T19:09:31.160Z,8.78
2023-01-22T19:11:59.985Z,8.69
2023-01-22T19:14:28.794Z,8.73
2023-01-22T19:16:58.942Z,8.76
2023-01-22T19:19:27.663Z,8.75
2023-01-22T19:21:58.056Z,8.77
2023-01-22T19:24:28.558Z,8.72
2023-01-22T19:26:58.273Z,8.84
2023-01-22T19:29:27.767Z,8.70
2023-01-22T19:31:57.486Z,8.65
2023-01-22T19:34:28.764Z,8.64
2023-01-22T19:37:03.492Z,8.70
2023-01-22T19:39:32.481Z,8.74
2023-01-22T19:42:04.725Z,8.69
2023-01-22T19:44:35.506Z,8.77
2023-01-22T19:47:04.497Z,8.72
2023-01-22T19:49:33.508Z,8.71
2023-01-22T19:52:07.031Z,8.80
2023-01-22T19:54:36.414Z,8.82
2023-01-22T19:57:10.018Z,8.91
2023-01-22T20:36:35.710Z,8.58
2023-01-22T20:38:03.083Z,8.48
2023-01-22T20:40:47.463Z,8.47
2023-01-22T20:43:17.891Z,8.36
2023-01-22T20:45:49.720Z,8.15
2023-01-22T21:22:01.169Z,8.23
2023-01-22T21:24:29.834Z,8.23
2023-01-22T21:27:00.859Z,8.26
2023-01-22T21:29:31.995Z,8.37
2023-01-22T21:32:04.618Z,8.39
2023-01-22T21:34:33.573Z,8.33
2023-01-22T21:37:02.243Z,8.43
2023-01-22T21:39:31.645Z,8.49
2023-01-22T21:42:05.141Z,8.44
2023-01-22T21:44:51.730Z,8.42
2023-01-22T21:47:20.382Z,8.57
2023-01-22T21:49:50.000Z,8.55
2023-01-22T21:52:18.497Z,8.56
2023-01-22T21:54:47.032Z,8.61
2023-01-22T21:57:17.215Z,8.59
2023-01-22T21:59:46.669Z,8.58
2023-01-22T22:02:19.779Z,8.71
2023-01-22T22:05:00.915Z,8.66
2023-01-22T22:07:29.590Z,8.69
2023-01-22T22:09:58.256Z,8.75
2023-01-22T22:12:28.596Z,8.64
2023-01-22T22:14:57.282Z,8.67
2023-01-22T22:17:25.968Z,8.61
2023-01-22T22:19:55.660Z,8.61
2023-01-22T22:22:24.490Z,8.77
2023-01-22T22:24:56.050Z,8.77
2023-01-22T22:27:27.596Z,8.81
2023-01-22T22:29:55.619Z,8.88
2023-01-22T22:32:25.014Z,8.89
2023-01-22T22:34:55.132Z,8.88
2023-01-22T22:37:23.786Z,8.86
2023-01-22T22:39:52.407Z,8.88
2023-01-22T22:48:44.459Z,8.60
2023-01-22T22:51:09.948Z,8.50
2023-01-22T22:56:59.802Z,8.53
2023-01-22T23:02:23.943Z,8.55
2023-01-22T23:05:10.437Z,8.59
2023-01-22T23:07:40.970Z,8.61
2023-01-22T23:10:13.534Z,8.53
2023-01-22T23:12:45.121Z,8.52
2023-01-22T23:15:17.338Z,8.57
2023-01-22T23:17:50.855Z,8.65
2023-01-22T23:20:52.465Z,8.60
2023-01-22T23:23:49.760Z,8.66
2023-01-22T23:26:25.827Z,8.63
2023-01-22T23:28:58.959Z,8.69
2023-01-22T23:31:34.452Z,8.70
2023-01-22T23:40:15.492Z,8.76
2023-01-22T23:42:45.716Z,8.70
2023-01-22T23:45:20.136Z,8.64
2023-01-22T23:47:51.923Z,8.47
2023-01-22T23:50:20.918Z,8.45
2023-01-22T23:52:51.710Z,8.47
2023-01-22T23:55:20.561Z,8.40
2023-01-22T23:57:49.472Z,8.36
